Time;durP1;ratioP1;P1;durP2;ratioP2;P2;SDS_P1;SDS_P2;PMS_P1;PMS_P2;Temp;Humidity;BMP_temperature;BMP_pressure;BME280_temperature;BME280_humidity;BME280_pressure;Samples;Min_cycle;Max_cycle;Signal;HPM_P1;HPM_P2
2023/09/20 00:00:11;;;;;;;8.63;2.08;;;;;;;;;;4963902;28;20485;-77
2023/09/20 00:02:39;;;;;;;6.90;2.00;;;;;;;;;;4989754;28;20030;-77
2023/09/20 00:05:12;;;;;;;5.40;1.73;;;;;;;;;;4974017;28;20381;-78
2023/09/20 00:07:37;;;;;;;6.05;1.90;;;;;;;;;;4992030;28;20093;-77
2023/09/20 00:10:04;;;;;;;7.38;1.98;;;;;;;;;;4987623;28;20029;-78
2023/09/20 00:12:29;;;;;;;5.85;2.20;;;;;;;;;;4975504;28;20032;-77
2023/09/20 00:14:55;;;;;;;7.13;2.08;;;;;;;;;;4983079;28;20112;-77
2023/09/20 00:17:20;;;;;;;7.72;1.90;;;;;;;;;;4989923;28;20026;-78
2023/09/20 00:19:46;;;;;;;5.43;1.88;;;;;;;;;;4989509;28;20038;-77
2023/09/20 00:22:13;;;;;;;5.75;1.88;;;;;;;;;;4994132;28;20088;-77
2023/09/20 00:24:38;;;;;;;6.70;2.15;;;;;;;;;;4994774;28;20081;-77
2023/09/20 00:27:04;;;;;;;6.45;1.80;;;;;;;;;;4984492;28;20477;-77
2023/09/20 00:29:29;;;;;;;6.55;2.45;;;;;;;;;;4991229;28;20057;-78
2023/09/20 00:31:55;;;;;;;7.35;2.00;;;;;;;;;;4985125;28;20486;-77
2023/09/20 00:34:20;;;;;;;7.20;1.98;;;;;;;;;;4972501;28;20034;-77
2023/09/20 00:36:46;;;;;;;6.03;2.00;;;;;;;;;;4990403;28;20033;-77
2023/09/20 00:39:11;;;;;;;5.45;1.80;;;;;;;;;;4990440;28;20030;-78
2023/09/20 00:41:37;;;;;;;6.22;1.70;;;;;;;;;;4973983;28;20117;-77
2023/09/20 00:44:03;;;;;;;5.05;1.90;;;;;;;;;;4992614;28;20405;-77
2023/09/20 00:46:31;;;;;;;7.75;2.03;;;;;;;;;;4985311;28;20077;-77
2023/09/20 00:48:56;;;;;;;6.18;1.85;;;;;;;;;;4972710;28;20124;-77
2023/09/20 00:51:24;;;;;;;7.57;2.30;;;;;;;;;;4966974;28;20125;-77
2023/09/20 00:53:57;;;;;;;7.25;2.00;;;;;;;;;;4970897;28;20494;-80
2023/09/20 00:56:23;;;;;;;7.30;2.00;;;;;;;;;;4984967;28;20037;-80
2023/09/20 00:58:52;;;;;;;7.28;2.10;;;;;;;;;;4983346;28;20034;-79
2023/09/20 01:01:18;;;;;;;7.88;2.17;;;;;;;;;;4984749;28;20037;-80
2023/09/20 01:03:44;;;;;;;7.05;2.00;;;;;;;;;;4968444;28;20169;-80
2023/09/20 01:06:14;;;;;;;6.32;1.80;;;;;;;;;;4980282;28;20483;-78
2023/09/20 01:08:40;;;;;;;7.20;1.90;;;;;;;;;;4984880;28;20433;-77
2023/09/20 01:11:05;;;;;;;5.95;1.92;;;;;;;;;;4978127;28;20034;-77
2023/09/20 01:13:31;;;;;;;9.75;2.10;;;;;;;;;;4990700;28;20463;-77
2023/09/20 01:15:56;;;;;;;7.18;2.00;;;;;;;;;;4972913;28;20027;-77
2023/09/20 01:18:21;;;;;;;8.57;2.03;;;;;;;;;;4970179;28;20027;-77
2023/09/20 01:20:47;;;;;;;5.88;1.92;;;;;;;;;;4984572;28;20372;-78
2023/09/20 01:23:13;;;;;;;6.22;1.70;;;;;;;;;;4970826;28;20478;-77
2023/09/20 01:25:43;;;;;;;8.70;2.47;;;;;;;;;;4968346;28;20135;-77
2023/09/20 01:28:10;;;;;;;5.35;1.75;;;;;;;;;;4989904;28;20037;-77
2023/09/20 01:30:41;;;;;;;5.68;1.92;;;;;;;;;;4986285;28;20369;-77
2023/09/20 01:33:08;;;;;;;6.75;2.00;;;;;;;;;;4988102;28;20036;-77
2023/09/20 01:35:35;;;;;;;7.30;1.90;;;;;;;;;;4992228;28;20025;-77
2023/09/20 01:38:10;;;;;;;6.53;2.13;;;;;;;;;;4991716;28;20045;-77
2023/09/20 01:40:36;;;;;;;6.82;1.88;;;;;;;;;;4987200;28;20025;-77
2023/09/20 01:43:08;;;;;;;5.38;1.83;;;;;;;;;;4985458;28;20033;-77
2023/09/20 01:45:35;;;;;;;8.00;2.10;;;;;;;;;;4983442;28;20030;-77
2023/09/20 01:48:05;;;;;;;4.57;1.70;;;;;;;;;;4981004;28;20104;-77
2023/09/20 01:50:30;;;;;;;4.45;1.80;;;;;;;;;;4966063;28;20037;-77
2023/09/20 01:52:57;;;;;;;5.18;2.30;;;;;;;;;;4984525;28;20027;-77
2023/09/20 01:55:24;;;;;;;4.28;1.60;;;;;;;;;;4985726;28;20050;-77
2023/09/20 01:57:55;;;;;;;6.00;1.95;;;;;;;;;;4986766;28;20427;-77
2023/09/20 02:00:33;;;;;;;5.40;2.00;;;;;;;;;;4983587;28;20521;-77
2023/09/20 02:03:08;;;;;;;5.10;1.88;;;;;;;;;;4986413;28;20029;-76
2023/09/20 02:05:36;;;;;;;7.43;1.77;;;;;;;;;;4987485;28;20129;-77
2023/09/20 02:08:02;;;;;;;5.78;1.98;;;;;;;;;;4968875;28;20021;-77
2023/09/20 02:10:28;;;;;;;5.22;1.60;;;;;;;;;;4984174;28;20111;-77
2023/09/20 02:12:55;;;;;;;8.68;1.80;;;;;;;;;;4970321;28;20121;-77
2023/09/20 02:15:21;;;;;;;6.57;1.90;;;;;;;;;;4984148;28;20030;-77
2023/09/20 02:17:47;;;;;;;5.15;1.95;;;;;;;;;;4965810;28;20034;-80
2023/09/20 02:20:23;;;;;;;5.75;1.83;;;;;;;;;;4984324;28;20179;-80
2023/09/20 02:22:50;;;;;;;4.88;2.05;;;;;;;;;;4981467;28;20018;-80
2023/09/20 02:25:20;;;;;;;7.20;1.80;;;;;;;;;;4983324;28;20441;-80
2023/09/20 02:27:49;;;;;;;6.97;1.92;;;;;;;;;;4983455;28;20022;-79
2023/09/20 02:30:17;;;;;;;6.65;2.13;;;;;;;;;;4973423;28;20121;-80
2023/09/20 02:32:43;;;;;;;4.95;1.90;;;;;;;;;;4967476;28;20031;-80
2023/09/20 02:35:08;;;;;;;3.80;1.90;;;;;;;;;;4985059;28;20041;-79
2023/09/20 02:37:34;;;;;;;5.35;1.70;;;;;;;;;;4990522;28;20030;-80
2023/09/20 02:40:03;;;;;;;5.90;1.92;;;;;;;;;;4985588;28;20057;-80
2023/09/20 02:42:28;;;;;;;4.90;1.50;;;;;;;;;;4985591;28;20397;-80
2023/09/20 02:44:55;;;;;;;6.95;1.83;;;;;;;;;;4969709;28;20026;-78
2023/09/20 02:47:21;;;;;;;4.63;1.60;;;;;;;;;;4985480;28;20041;-80
2023/09/20 02:49:48;;;;;;;5.93;1.67;;;;;;;;;;4988819;28;20037;-79
2023/09/20 02:52:16;;;;;;;6.55;1.80;;;;;;;;;;4986488;28;20409;-80
2023/09/20 02:54:43;;;;;;;6.43;1.55;;;;;;;;;;4989068;28;20025;-80
2023/09/20 02:57:10;;;;;;;4.93;1.55;;;;;;;;;;4967686;28;20394;-80
2023/09/20 02:59:36;;;;;;;5.63;1.80;;;;;;;;;;4970293;28;20030;-80
2023/09/20 03:02:04;;;;;;;5.47;1.90;;;;;;;;;;4990402;28;20402;-80
2023/09/20 03:04:29;;;;;;;7.53;2.45;;;;;;;;;;4988992;28;20030;-79
2023/09/20 03:06:54;;;;;;;4.30;1.73;;;;;;;;;;4986984;28;20029;-80
2023/09/20 03:09:23;;;;;;;4.63;1.77;;;;;;;;;;4963828;28;20386;-79
2023/09/20 03:11:49;;;;;;;4.47;1.67;;;;;;;;;;4970029;28;20045;-79
2023/09/20 03:14:14;;;;;;;4.57;1.80;;;;;;;;;;4983447;28;20057;-79
2023/09/20 03:16:41;;;;;;;6.28;1.85;;;;;;;;;;4971976;28;20072;-80
2023/09/20 03:19:09;;;;;;;4.95;1.58;;;;;;;;;;4992533;28;20475;-76
2023/09/20 03:21:35;;;;;;;6.65;1.60;;;;;;;;;;4987779;28;20073;-77
2023/09/20 03:24:00;;;;;;;7.15;1.90;;;;;;;;;;4972906;28;20430;-77
2023/09/20 03:26:25;;;;;;;5.22;1.90;;;;;;;;;;4995083;28;20034;-79
2023/09/20 03:28:56;;;;;;;7.97;1.98;;;;;;;;;;4995421;28;20078;-79
2023/09/20 03:31:22;;;;;;;5.05;1.80;;;;;;;;;;4992272;28;20031;-79
2023/09/20 03:33:47;;;;;;;6.88;1.80;;;;;;;;;;4969938;28;20041;-80
2023/09/20 03:36:15;;;;;;;5.40;1.90;;;;;;;;;;4984614;28;20145;-79
2023/09/20 03:38:41;;;;;;;5.80;1.85;;;;;;;;;;4986101;28;20161;-79
2023/09/20 03:41:07;;;;;;;12.90;3.38;;;;;;;;;;4983382;28;20061;-80
2023/09/20 03:43:32;;;;;;;5.70;1.77;;;;;;;;;;4967875;28;20603;-79
2023/09/20 03:45:58;;;;;;;8.05;2.20;;;;;;;;;;4980992;28;20022;-80
2023/09/20 03:48:23;;;;;;;8.30;2.15;;;;;;;;;;4982577;28;20034;-79
2023/09/20 03:50:49;;;;;;;5.40;1.83;;;;;;;;;;4986143;28;20032;-80
2023/09/20 03:53:15;;;;;;;6.90;2.53;;;;;;;;;;4990497;28;20414;-79
2023/09/20 03:55:40;;;;;;;5.25;2.13;;;;;;;;;;4993634;28;20029;-80
2023/09/20 03:58:05;;;;;;;5.45;2.20;;;;;;;;;;4989712;28;20447;-80
2023/09/20 04:00:31;;;;;;;4.70;1.70;;;;;;;;;;4988644;28;20442;-79
2023/09/20 04:02:58;;;;;;;8.90;1.98;;;;;;;;;;4990676;28;20121;-80
2023/09/20 04:05:24;;;;;;;5.07;2.00;;;;;;;;;;4994037;28;20026;-80
2023/09/20 04:07:49;;;;;;;4.00;1.75;;;;;;;;;;4987954;28;20042;-79
2023/09/20 04:10:16;;;;;;;3.85;1.60;;;;;;;;;;4986809;28;20034;-79
2023/09/20 04:12:42;;;;;;;7.25;1.80;;;;;;;;;;4967125;28;20065;-79
2023/09/20 04:15:08;;;;;;;6.18;1.90;;;;;;;;;;4982593;28;20072;-80
2023/09/20 04:17:35;;;;;;;7.78;2.33;;;;;;;;;;4973144;28;20052;-79
2023/09/20 04:20:01;;;;;;;6.20;2.10;;;;;;;;;;4963987;28;20023;-80
2023/09/20 04:22:27;;;;;;;6.47;2.22;;;;;;;;;;4982920;28;20084;-80
2023/09/20 04:24:52;;;;;;;6.82;2.10;;;;;;;;;;4962592;28;20158;-79
2023/09/20 04:27:18;;;;;;;5.78;2.15;;;;;;;;;;4983469;28;20031;-79
2023/09/20 04:29:43;;;;;;;4.97;1.80;;;;;;;;;;4972774;28;20069;-80
2023/09/20 04:32:09;;;;;;;4.68;1.90;;;;;;;;;;4984703;28;20062;-79
2023/09/20 04:34:35;;;;;;;6.30;2.00;;;;;;;;;;4982511;28;20029;-79
2023/09/20 04:37:01;;;;;;;7.65;2.05;;;;;;;;;;4981507;28;20026;-77
2023/09/20 04:39:27;;;;;;;5.93;2.05;;;;;;;;;;4962797;28;20022;-78
2023/09/20 04:41:53;;;;;;;7.00;2.13;;;;;;;;;;4982658;28;20885;-77
2023/09/20 04:44:20;;;;;;;5.22;1.90;;;;;;;;;;4980356;28;20491;-78
2023/09/20 04:46:47;;;;;;;5.88;1.90;;;;;;;;;;4976501;28;20610;-77
2023/09/20 04:49:13;;;;;;;4.50;1.70;;;;;;;;;;4986145;28;20590;-79
2023/09/20 04:51:39;;;;;;;4.43;1.77;;;;;;;;;;4983654;28;20030;-79
2023/09/20 04:54:07;;;;;;;5.90;2.00;;;;;;;;;;4986164;28;20033;-80
2023/09/20 04:56:32;;;;;;;9.10;2.20;;;;;;;;;;4996069;28;20033;-80
2023/09/20 04:58:57;;;;;;;6.80;2.35;;;;;;;;;;4983141;28;20026;-80
2023/09/20 05:01:23;;;;;;;5.15;1.92;;;;;;;;;;4986837;28;20034;-80
2023/09/20 05:03:50;;;;;;;8.05;2.25;;;;;;;;;;4988255;28;20039;-80
2023/09/20 05:06:19;;;;;;;5.90;1.80;;;;;;;;;;4987869;28;20034;-80
2023/09/20 05:08:44;;;;;;;5.75;2.05;;;;;;;;;;4987373;28;20034;-80
2023/09/20 05:11:10;;;;;;;5.78;2.05;;;;;;;;;;4960933;28;20029;-80
2023/09/20 05:13:36;;;;;;;4.68;1.85;;;;;;;;;;4961894;28;20037;-80
2023/09/20 05:16:03;;;;;;;6.90;1.92;;;;;;;;;;4966038;28;20541;-80
2023/09/20 05:18:29;;;;;;;5.53;2.00;;;;;;;;;;4982759;28;20560;-80
2023/09/20 05:20:54;;;;;;;6.88;2.35;;;;;;;;;;4983167;28;20026;-79
2023/09/20 05:23:20;;;;;;;6.95;2.05;;;;;;;;;;4961433;28;20023;-76
2023/09/20 05:25:45;;;;;;;7.82;1.95;;;;;;;;;;4964419;28;20022;-77
2023/09/20 05:28:13;;;;;;;5.20;1.70;;;;;;;;;;4984520;28;20026;-77
2023/09/20 05:30:41;;;;;;;4.93;1.77;;;;;;;;;;4979076;28;20112;-77
2023/09/20 05:33:07;;;;;;;7.85;2.03;;;;;;;;;;4982897;28;20030;-77
2023/09/20 05:35:32;;;;;;;4.95;2.08;;;;;;;;;;4967284;28;20037;-77
2023/09/20 05:37:59;;;;;;;6.57;2.40;;;;;;;;;;4989744;28;20035;-77
2023/09/20 05:40:27;;;;;;;5.25;1.70;;;;;;;;;;4970384;28;20038;-77
2023/09/20 05:42:53;;;;;;;5.80;1.70;;;;;;;;;;4989607;28;20117;-78
2023/09/20 05:45:23;;;;;;;4.30;1.67;;;;;;;;;;4965454;28;20141;-77
2023/09/20 05:47:49;;;;;;;6.50;2.13;;;;;;;;;;4967801;28;20092;-77
2023/09/20 05:50:15;;;;;;;5.57;1.70;;;;;;;;;;4964532;28;20031;-77
2023/09/20 05:52:45;;;;;;;7.35;2.00;;;;;;;;;;4984242;28;20033;-77
2023/09/20 05:55:14;;;;;;;6.80;2.25;;;;;;;;;;4986737;28;20120;-77
2023/09/20 05:57:41;;;;;;;8.13;2.30;;;;;;;;;;4965677;28;20034;-80
2023/09/20 06:00:12;;;;;;;5.60;1.90;;;;;;;;;;4984968;28;20027;-80
2023/09/20 06:02:37;;;;;;;8.68;1.92;;;;;;;;;;4980344;28;20023;-79
2023/09/20 06:05:03;;;;;;;6.82;2.10;;;;;;;;;;4989523;28;20048;-82
2023/09/20 06:07:30;;;;;;;4.10;1.65;;;;;;;;;;4964918;28;20208;-77
2023/09/20 06:09:55;;;;;;;5.47;1.67;;;;;;;;;;4961027;28;20029;-79
2023/09/20 06:12:20;;;;;;;6.18;1.90;;;;;;;;;;4969718;28;20030;-78
2023/09/20 06:14:46;;;;;;;5.82;1.77;;;;;;;;;;4981592;28;20042;-79
2023/09/20 06:17:12;;;;;;;5.00;1.60;;;;;;;;;;4982735;28;20097;-78
2023/09/20 06:19:38;;;;;;;6.28;2.20;;;;;;;;;;4984676;28;20023;-78
2023/09/20 06:22:03;;;;;;;5.30;1.83;;;;;;;;;;4986432;28;20032;-79
2023/09/20 06:24:28;;;;;;;5.55;2.00;;;;;;;;;;4980649;28;20030;-78
2023/09/20 06:26:54;;;;;;;8.07;2.00;;;;;;;;;;4986784;28;20371;-78
2023/09/20 06:29:20;;;;;;;6.40;2.08;;;;;;;;;;4959138;28;20038;-77
2023/09/20 06:31:45;;;;;;;6.13;2.20;;;;;;;;;;4987259;28;20031;-80
2023/09/20 06:34:14;;;;;;;6.47;1.70;;;;;;;;;;4965541;28;20042;-78
2023/09/20 06:36:40;;;;;;;7.00;2.10;;;;;;;;;;4982991;28;20034;-80
2023/09/20 06:39:08;;;;;;;7.28;1.92;;;;;;;;;;4962549;28;20042;-80
2023/09/20 06:41:33;;;;;;;7.40;2.33;;;;;;;;;;4984063;28;20056;-82
2023/09/20 06:43:58;;;;;;;7.82;2.53;;;;;;;;;;4965185;28;20033;-78
2023/09/20 06:46:24;;;;;;;5.95;1.90;;;;;;;;;;4980004;28;20438;-77
2023/09/20 06:48:49;;;;;;;5.72;2.05;;;;;;;;;;4983586;28;20092;-77
2023/09/20 06:51:17;;;;;;;5.90;1.95;;;;;;;;;;4984871;28;20076;-77
2023/09/20 06:53:43;;;;;;;4.25;1.85;;;;;;;;;;4974322;28;20112;-76
2023/09/20 06:56:08;;;;;;;5.20;2.25;;;;;;;;;;4964321;28;20030;-77
2023/09/20 06:58:34;;;;;;;7.90;1.90;;;;;;;;;;4979673;28;20998;-77
2023/09/20 07:00:59;;;;;;;5.97;1.83;;;;;;;;;;4984394;28;20115;-77
2023/09/20 07:03:24;;;;;;;5.45;2.00;;;;;;;;;;4977567;28;20394;-77
2023/09/20 07:05:51;;;;;;;4.40;1.80;;;;;;;;;;4994302;28;20038;-77
2023/09/20 07:08:18;;;;;;;6.47;2.30;;;;;;;;;;4989170;28;20113;-76
2023/09/20 07:10:45;;;;;;;4.72;1.83;;;;;;;;;;4979827;28;20061;-76
2023/09/20 07:13:11;;;;;;;7.00;2.13;;;;;;;;;;4976687;28;20035;-77
2023/09/20 07:15:39;;;;;;;3.72;1.90;;;;;;;;;;4968104;28;20478;-80
2023/09/20 07:18:11;;;;;;;4.45;2.00;;;;;;;;;;4973960;28;20033;-78
2023/09/20 07:20:42;;;;;;;6.63;2.00;;;;;;;;;;4960178;28;20218;-78
2023/09/20 07:23:15;;;;;;;6.05;1.95;;;;;;;;;;4979040;28;20065;-77
2023/09/20 07:25:41;;;;;;;4.57;2.20;;;;;;;;;;4977596;28;20058;-77
2023/09/20 07:28:09;;;;;;;5.90;2.00;;;;;;;;;;4985691;28;20085;-79
2023/09/20 07:30:39;;;;;;;5.70;1.95;;;;;;;;;;4986194;28;20502;-80
2023/09/20 07:33:11;;;;;;;6.05;1.88;;;;;;;;;;4962166;28;20061;-80
2023/09/20 07:35:38;;;;;;;4.03;1.80;;;;;;;;;;4977691;28;20378;-80
2023/09/20 07:38:12;;;;;;;4.72;1.67;;;;;;;;;;4985513;28;20146;-80
2023/09/20 07:40:38;;;;;;;6.00;1.63;;;;;;;;;;4981941;28;20029;-79
2023/09/20 07:43:07;;;;;;;4.60;2.00;;;;;;;;;;4981263;28;20088;-81
2023/09/20 07:45:41;;;;;;;6.90;2.00;;;;;;;;;;4972604;28;20034;-81
2023/09/20 07:48:13;;;;;;;5.38;1.70;;;;;;;;;;4989172;28;20049;-80
2023/09/20 07:50:40;;;;;;;6.18;1.90;;;;;;;;;;4986791;28;20030;-81
2023/09/20 07:53:10;;;;;;;8.23;2.40;;;;;;;;;;4984625;28;20093;-81
2023/09/20 07:55:36;;;;;;;7.95;2.10;;;;;;;;;;4972826;28;20034;-82
2023/09/20 07:58:01;;;;;;;7.13;2.08;;;;;;;;;;4968501;28;20049;-81
2023/09/20 08:00:27;;;;;;;5.00;1.85;;;;;;;;;;4970631;28;20023;-81
2023/09/20 08:02:54;;;;;;;6.45;1.75;;;;;;;;;;4989436;28;20030;-82
2023/09/20 08:05:22;;;;;;;4.72;1.67;;;;;;;;;;4965435;28;20033;-80
2023/09/20 08:07:47;;;;;;;5.65;1.83;;;;;;;;;;4983728;28;20018;-79
2023/09/20 08:10:13;;;;;;;5.47;2.00;;;;;;;;;;4988564;28;20675;-82
2023/09/20 08:12:38;;;;;;;4.80;1.90;;;;;;;;;;4987694;28;20113;-79
2023/09/20 08:15:04;;;;;;;4.80;2.28;;;;;;;;;;4987465;28;20030;-81
2023/09/20 08:20:16;;;;;;;5.50;2.20;;;;;;;;;;4981968;28;20088;-81
2023/09/20 09:01:12;;;;;;;6.13;2.00;;;;;;;;;;4992831;28;20037;-77
2023/09/20 09:03:39;;;;;;;7.32;1.90;;;;;;;;;;4985303;28;20046;-79
2023/09/20 09:06:05;;;;;;;6.15;2.08;;;;;;;;;;4971436;28;20560;-77
2023/09/20 09:08:31;;;;;;;6.25;2.60;;;;;;;;;;4969913;28;20106;-78
2023/09/20 09:10:56;;;;;;;7.22;2.00;;;;;;;;;;4981599;28;20117;-77
2023/09/20 09:13:22;;;;;;;6.97;2.30;;;;;;;;;;4983572;28;20054;-77
2023/09/20 09:15:47;;;;;;;5.03;2.13;;;;;;;;;;4986621;28;20033;-78
2023/09/20 09:18:16;;;;;;;7.68;2.55;;;;;;;;;;4996761;28;20030;-77
2023/09/20 09:20:41;;;;;;;4.55;2.05;;;;;;;;;;4984681;28;20041;-77
2023/09/20 09:23:07;;;;;;;6.18;2.30;;;;;;;;;;4961834;28;20034;-78
2023/09/20 09:25:33;;;;;;;7.50;2.65;;;;;;;;;;4987899;28;20030;-77
2023/09/20 09:27:58;;;;;;;4.68;2.08;;;;;;;;;;4967383;28;20072;-77
2023/09/20 09:30:23;;;;;;;5.18;2.30;;;;;;;;;;4988832;28;20061;-77
2023/09/20 09:32:50;;;;;;;6.55;2.55;;;;;;;;;;4981226;28;20022;-77
2023/09/20 09:35:19;;;;;;;5.20;2.40;;;;;;;;;;4963202;28;20410;-77
2023/09/20 09:37:44;;;;;;;5.38;2.20;;;;;;;;;;4968056;28;20026;-76
2023/09/20 09:40:12;;;;;;;7.72;2.47;;;;;;;;;;4971512;28;20041;-77
2023/09/20 09:42:39;;;;;;;5.90;2.30;;;;;;;;;;4989032;28;20474;-77
2023/09/20 09:45:06;;;;;;;7.10;2.60;;;;;;;;;;4983465;28;20022;-76
2023/09/20 09:47:35;;;;;;;4.70;2.40;;;;;;;;;;4991345;28;20041;-77
2023/09/20 09:50:03;;;;;;;7.05;2.38;;;;;;;;;;4987840;28;20024;-78
2023/09/20 09:52:29;;;;;;;6.68;2.40;;;;;;;;;;4988612;28;20098;-77
2023/09/20 09:54:55;;;;;;;4.80;2.42;;;;;;;;;;4986491;28;20478;-77
2023/09/20 09:57:21;;;;;;;5.53;2.92;;;;;;;;;;4980762;28;20025;-77
2023/09/20 09:59:48;;;;;;;4.07;2.13;;;;;;;;;;4985118;28;20049;-79
2023/09/20 10:02:18;;;;;;;6.93;2.30;;;;;;;;;;4967280;28;20053;-77
2023/09/20 10:04:58;;;;;;;6.15;2.47;;;;;;;;;;4981876;28;20046;-82
2023/09/20 10:07:29;;;;;;;5.28;2.45;;;;;;;;;;4971232;28;20021;-77
2023/09/20 10:10:08;;;;;;;18.45;2.33;;;;;;;;;;4970164;28;20034;-78
2023/09/20 10:12:35;;;;;;;5.00;2.15;;;;;;;;;;4982617;28;20045;-76
2023/09/20 10:15:06;;;;;;;6.03;2.10;;;;;;;;;;4968830;28;20056;-81
2023/09/20 10:17:33;;;;;;;3.63;2.00;;;;;;;;;;4967642;28;20065;-77
2023/09/20 10:19:58;;;;;;;6.60;2.20;;;;;;;;;;4975044;28;20077;-77
2023/09/20 10:22:25;;;;;;;7.65;2.20;;;;;;;;;;4987077;28;20065;-79
2023/09/20 10:24:58;;;;;;;6.07;2.30;;;;;;;;;;4988814;28;20512;-77
2023/09/20 10:27:27;;;;;;;4.85;1.90;;;;;;;;;;4969016;28;20045;-78
2023/09/20 10:29:59;;;;;;;4.40;2.03;;;;;;;;;;4981806;28;20114;-78
2023/09/20 10:32:48;;;;;;;4.78;2.00;;;;;;;;;;4984474;28;20030;-78
2023/09/20 10:35:27;;;;;;;3.42;1.85;;;;;;;;;;4967619;28;20446;-78
2023/09/20 10:38:21;;;;;;;5.18;2.08;;;;;;;;;;4984135;28;20109;-78
2023/09/20 10:40:47;;;;;;;3.97;1.85;;;;;;;;;;4978869;28;20038;-78
2023/09/20 10:43:15;;;;;;;3.47;1.80;;;;;;;;;;4981613;28;20052;-82
2023/09/20 10:45:48;;;;;;;4.65;1.92;;;;;;;;;;4982947;28;20018;-85
2023/09/20 10:48:17;;;;;;;6.18;1.60;;;;;;;;;;4975913;28;20117;-84
2023/09/20 10:50:52;;;;;;;5.53;1.80;;;;;;;;;;4964341;28;20037;-83
2023/09/20 10:53:22;;;;;;;4.05;1.67;;;;;;;;;;4965190;28;20040;-81
2023/09/20 10:55:51;;;;;;;6.35;1.80;;;;;;;;;;4961158;28;20109;-83
2023/09/20 10:58:23;;;;;;;4.22;1.75;;;;;;;;;;4963474;28;20045;-77
2023/09/20 11:00:50;;;;;;;2.70;1.50;;;;;;;;;;4980695;28;20033;-78
2023/09/20 11:03:18;;;;;;;3.78;1.70;;;;;;;;;;4964369;28;20049;-83
2023/09/20 11:05:44;;;;;;;3.70;1.58;;;;;;;;;;4982739;28;20026;-83
2023/09/20 11:08:13;;;;;;;3.80;1.70;;;;;;;;;;4965152;28;20034;-83
2023/09/20 11:10:40;;;;;;;3.97;1.70;;;;;;;;;;4949154;28;20486;-83
2023/09/20 11:13:10;;;;;;;3.63;1.40;;;;;;;;;;4964644;28;20053;-83
2023/09/20 11:15:43;;;;;;;2.35;1.45;;;;;;;;;;4967943;28;20040;-82
2023/09/20 11:18:09;;;;;;;6.80;1.67;;;;;;;;;;4969313;28;20506;-82
2023/09/20 11:20:36;;;;;;;4.00;1.45;;;;;;;;;;4980121;28;20430;-84
2023/09/20 11:23:04;;;;;;;3.85;1.42;;;;;;;;;;4965996;28;20023;-82
2023/09/20 11:25:30;;;;;;;5.50;1.65;;;;;;;;;;4983273;28;20397;-80
2023/09/20 11:27:56;;;;;;;4.15;1.45;;;;;;;;;;4964053;28;20027;-81
2023/09/20 11:30:27;;;;;;;3.65;1.40;;;;;;;;;;4985091;28;20034;-82
2023/09/20 11:32:53;;;;;;;3.35;1.40;;;;;;;;;;4967971;28;20033;-83
2023/09/20 11:35:33;;;;;;;4.97;1.60;;;;;;;;;;4987597;28;20100;-80
2023/09/20 11:37:59;;;;;;;3.28;1.40;;;;;;;;;;4994988;28;20026;-82
2023/09/20 11:40:24;;;;;;;2.38;1.35;;;;;;;;;;4987340;28;20109;-85
2023/09/20 11:42:52;;;;;;;2.67;1.38;;;;;;;;;;4973335;28;20125;-81
2023/09/20 11:45:18;;;;;;;3.03;1.38;;;;;;;;;;4969037;28;20057;-81
2023/09/20 11:47:43;;;;;;;3.92;1.45;;;;;;;;;;4986921;28;20058;-82
2023/09/20 11:50:13;;;;;;;2.58;1.50;;;;;;;;;;4983933;28;20117;-81
2023/09/20 11:52:48;;;;;;;2.75;1.60;;;;;;;;;;4965453;28;20154;-82
2023/09/20 11:55:15;;;;;;;4.72;1.50;;;;;;;;;;4992160;28;20081;-82
2023/09/20 11:57:45;;;;;;;5.03;1.90;;;;;;;;;;4971587;28;21027;-82
2023/09/20 12:00:25;;;;;;;3.47;1.58;;;;;;;;;;4971597;28;20494;-78
2023/09/20 12:02:53;;;;;;;3.17;1.30;;;;;;;;;;4986272;28;20057;-81
2023/09/20 12:05:21;;;;;;;5.40;1.60;;;;;;;;;;4974891;28;20474;-85
2023/09/20 12:07:57;;;;;;;4.03;1.70;;;;;;;;;;4975250;28;20077;-85
2023/09/20 12:10:26;;;;;;;4.88;1.48;;;;;;;;;;4966586;28;20039;-85
2023/09/20 12:12:52;;;;;;;4.75;1.40;;;;;;;;;;4985526;28;20050;-79
2023/09/20 12:15:21;;;;;;;5.55;1.83;;;;;;;;;;4968423;28;20117;-77
2023/09/20 12:17:47;;;;;;;2.67;1.35;;;;;;;;;;4967825;28;20463;-75
2023/09/20 12:20:15;;;;;;;5.30;1.80;;;;;;;;;;4985570;28;20105;-79
2023/09/20 12:22:42;;;;;;;4.95;1.55;;;;;;;;;;4991642;28;20025;-78
2023/09/20 12:25:08;;;;;;;3.70;1.65;;;;;;;;;;4982299;28;20038;-77
2023/09/20 12:27:36;;;;;;;3.72;1.60;;;;;;;;;;4990614;28;20026;-80
2023/09/20 12:30:02;;;;;;;3.40;1.70;;;;;;;;;;4976528;28;20041;-77
2023/09/20 12:32:27;;;;;;;4.10;1.85;;;;;;;;;;4976225;28;20038;-78
2023/09/20 12:34:54;;;;;;;6.55;1.52;;;;;;;;;;4968927;28;20487;-77
2023/09/20 12:37:20;;;;;;;4.80;1.40;;;;;;;;;;4992156;28;20023;-76
2023/09/20 12:39:46;;;;;;;4.78;1.70;;;;;;;;;;4965265;28;20426;-77
2023/09/20 12:42:12;;;;;;;3.60;1.30;;;;;;;;;;4977218;28;20478;-78
2023/09/20 12:44:37;;;;;;;4.53;1.67;;;;;;;;;;4993355;28;20118;-77
2023/09/20 12:47:03;;;;;;;4.85;1.50;;;;;;;;;;4974623;28;20019;-79
2023/09/20 12:49:28;;;;;;;5.72;1.58;;;;;;;;;;4990447;28;20041;-76
2023/09/20 12:51:54;;;;;;;2.58;1.30;;;;;;;;;;4992349;28;20495;-77
2023/09/20 12:54:19;;;;;;;4.95;1.50;;;;;;;;;;4988982;28;20096;-77
2023/09/20 12:56:44;;;;;;;5.15;1.58;;;;;;;;;;4969293;28;20034;-77
2023/09/20 12:59:13;;;;;;;5.80;1.50;;;;;;;;;;4969507;28;20117;-77
2023/09/20 13:01:38;;;;;;;3.72;1.58;;;;;;;;;;4971811;28;20547;-77
2023/09/20 13:04:04;;;;;;;4.72;1.42;;;;;;;;;;4974563;28;20031;-78
2023/09/20 13:06:32;;;;;;;3.85;1.50;;;;;;;;;;4958256;28;20042;-78
2023/09/20 13:08:58;;;;;;;3.55;1.70;;;;;;;;;;4981530;28;20030;-78
2023/09/20 13:11:23;;;;;;;2.92;1.50;;;;;;;;;;4969505;28;20501;-78
2023/09/20 13:13:49;;;;;;;5.25;1.55;;;;;;;;;;4994114;28;20422;-78
2023/09/20 13:16:16;;;;;;;4.32;1.35;;;;;;;;;;4971508;28;20482;-83
2023/09/20 13:18:43;;;;;;;4.35;1.40;;;;;;;;;;4983846;28;20117;-83
2023/09/20 13:21:09;;;;;;;2.90;1.48;;;;;;;;;;4970663;28;20494;-82
2023/09/20 13:23:34;;;;;;;2.97;1.40;;;;;;;;;;4991107;28;20032;-82
2023/09/20 13:26:03;;;;;;;2.78;1.30;;;;;;;;;;4969016;28;20042;-83
2023/09/20 13:28:29;;;;;;;2.85;1.38;;;;;;;;;;4966694;28;20489;-82
2023/09/20 13:30:55;;;;;;;4.65;1.60;;;;;;;;;;4986528;28;20399;-82
2023/09/20 13:33:20;;;;;;;8.18;2.10;;;;;;;;;;4969860;28;20026;-83
2023/09/20 13:35:46;;;;;;;4.18;1.70;;;;;;;;;;4965056;28;20018;-82
2023/09/20 13:38:12;;;;;;;3.15;1.50;;;;;;;;;;4985281;28;20506;-77
2023/09/20 13:40:38;;;;;;;3.00;1.30;;;;;;;;;;4988821;28;20052;-78
2023/09/20 13:43:04;;;;;;;6.40;1.33;;;;;;;;;;4985328;28;20036;-77
2023/09/20 13:45:31;;;;;;;2.95;1.50;;;;;;;;;;4968992;28;20030;-78
2023/09/20 13:47:56;;;;;;;7.15;1.40;;;;;;;;;;4985895;28;20367;-77
2023/09/20 13:50:23;;;;;;;4.65;1.42;;;;;;;;;;4973697;28;20029;-77
2023/09/20 13:52:48;;;;;;;4.25;1.42;;;;;;;;;;4988043;28;20026;-79
2023/09/20 13:55:16;;;;;;;3.47;1.40;;;;;;;;;;4966035;28;20060;-78
2023/09/20 13:57:42;;;;;;;4.72;1.42;;;;;;;;;;4980823;28;20026;-78
2023/09/20 14:00:14;;;;;;;2.63;1.30;;;;;;;;;;4986210;28;20034;-78
2023/09/20 14:02:41;;;;;;;3.17;1.42;;;;;;;;;;4987033;28;20475;-77
2023/09/20 14:05:15;;;;;;;3.70;1.13;;;;;;;;;;4983815;28;20049;-78
2023/09/20 14:07:45;;;;;;;3.67;1.30;;;;;;;;;;4982055;28;20026;-79
2023/09/20 14:10:12;;;;;;;3.50;1.30;;;;;;;;;;4981720;28;20022;-78
2023/09/20 14:12:38;;;;;;;3.42;1.20;;;;;;;;;;4970224;28;20026;-78
2023/09/20 14:15:06;;;;;;;3.80;1.20;;;;;;;;;;4969621;28;20038;-77
2023/09/20 14:17:31;;;;;;;3.67;1.42;;;;;;;;;;4966278;28;20391;-82
2023/09/20 14:19:56;;;;;;;4.53;1.20;;;;;;;;;;4961037;28;20058;-78
2023/09/20 14:22:22;;;;;;;3.03;1.50;;;;;;;;;;4982583;28;20617;-78
2023/09/20 14:24:47;;;;;;;5.43;1.30;;;;;;;;;;4965352;28;20023;-78
2023/09/20 14:27:13;;;;;;;2.72;1.20;;;;;;;;;;4964345;28;20068;-83
2023/09/20 14:29:38;;;;;;;2.72;1.10;;;;;;;;;;4965620;28;20027;-82
2023/09/20 14:32:04;;;;;;;3.90;1.35;;;;;;;;;;4964939;28;20041;-83
2023/09/20 14:34:30;;;;;;;4.95;1.15;;;;;;;;;;4987030;28;20034;-77
2023/09/20 14:36:56;;;;;;;3.50;1.10;;;;;;;;;;4964755;28;20446;-84
2023/09/20 14:39:21;;;;;;;4.88;1.20;;;;;;;;;;4991435;28;20021;-84
2023/09/20 14:41:46;;;;;;;4.15;1.20;;;;;;;;;;4988508;28;20109;-81
2023/09/20 14:44:13;;;;;;;2.25;1.08;;;;;;;;;;4964297;28;20026;-83
2023/09/20 14:46:40;;;;;;;3.08;1.30;;;;;;;;;;4963001;28;20038;-81
2023/09/20 14:49:05;;;;;;;2.63;1.00;;;;;;;;;;4997257;28;20022;-84
2023/09/20 14:51:31;;;;;;;2.38;1.10;;;;;;;;;;4980332;28;20038;-83
2023/09/20 14:53:58;;;;;;;2.25;1.10;;;;;;;;;;4960247;28;20021;-82
2023/09/20 14:56:23;;;;;;;6.03;1.40;;;;;;;;;;4982553;28;20074;-84
2023/09/20 14:58:49;;;;;;;3.22;1.00;;;;;;;;;;4984549;28;20042;-82
2023/09/20 15:01:19;;;;;;;3.55;1.73;;;;;;;;;;4988742;28;20045;-83
2023/09/20 15:03:46;;;;;;;2.88;1.05;;;;;;;;;;4966748;28;20030;-83
2023/09/20 15:06:22;;;;;;;1.80;1.00;;;;;;;;;;4984387;28;20446;-84
2023/09/20 15:08:48;;;;;;;2.38;1.10;;;;;;;;;;4963998;28;20022;-82
2023/09/20 15:11:17;;;;;;;2.75;1.10;;;;;;;;;;4943283;28;20517;-84
2023/09/20 15:13:44;;;;;;;3.42;1.15;;;;;;;;;;4957757;28;20251;-82
2023/09/20 15:16:16;;;;;;;2.83;1.17;;;;;;;;;;4984042;28;20027;-83
2023/09/20 15:18:45;;;;;;;3.92;1.00;;;;;;;;;;4982890;28;20030;-84
2023/09/20 15:21:12;;;;;;;2.15;0.90;;;;;;;;;;4980772;28;20546;-85
2023/09/20 15:23:38;;;;;;;3.30;1.17;;;;;;;;;;4975962;28;20063;-81